Time;durP1;ratioP1;P1;durP2;ratioP2;P2;SDS_P1;SDS_P2;PMS_P1;PMS_P2;Temp;Humidity;BMP_temperature;BMP_pressure;BME280_temperature;BME280_humidity;BME280_pressure;Samples;Min_cycle;Max_cycle;Signal;HPM_P1;HPM_P2
2022/08/12 00:44:31;;;;;;;5.97;3.60;;;;;;;19.85;92.67;93216.81;5103187;28;20054;-77
2022/08/12 00:46:59;;;;;;;4.93;3.50;;;;;;;19.92;92.56;93222.53;5090622;28;20040;-78
2022/08/12 00:49:28;;;;;;;6.00;3.70;;;;;;;19.90;92.16;93228.03;5090527;28;20047;-77
2022/08/12 00:52:06;;;;;;;36.72;4.45;;;;;;;19.85;90.92;93228.03;5090315;28;20052;-77
2022/08/12 00:54:39;;;;;;;5.38;3.47;;;;;;;19.86;90.71;93231.44;5089938;28;20393;-77
2022/08/12 00:57:09;;;;;;;6.07;3.35;;;;;;;19.92;91.03;93226.97;5089616;28;20093;-77
2022/08/12 00:59:37;;;;;;;38.50;4.32;;;;;;;19.58;91.45;93205.72;5089758;28;20163;-77
2022/08/12 01:02:06;;;;;;;7.97;3.58;;;;;;;19.72;93.18;93239.03;5089042;28;20109;-77
2022/08/12 01:12:50;;;;;;;;;;;;;;;19.57;95.94;93248.47;5097774;28;20092;-79
2022/08/12 01:15:18;;;;;;;4.80;3.72;;;;;;;19.54;96.01;93256.81;5095533;28;19920;-80
2022/08/12 01:17:46;;;;;;;7.13;3.90;;;;;;;19.45;98.26;93255.78;5089513;28;20499;-79
2022/08/12 01:20:25;;;;;;;5.88;3.45;;;;;;;19.45;98.41;93255.78;5089555;28;20048;-79
2022/08/12 01:23:17;;;;;;;4.88;3.47;;;;;;;19.50;98.84;93247.97;5089984;28;20090;-79
2022/08/12 01:25:47;;;;;;;4.65;3.53;;;;;;;19.46;100.00;93255.53;5058118;28;20109;-79
2022/08/12 01:28:17;;;;;;;4.25;3.17;;;;;;;19.38;100.00;93260.50;5100956;28;20629;-79
2022/08/12 01:30:44;;;;;;;6.43;3.65;;;;;;;19.44;100.00;93264.66;5089532;28;20115;-79
2022/08/12 01:33:16;;;;;;;5.30;3.85;;;;;;;19.38;100.00;93260.50;5089218;28;20521;-79
2022/08/12 01:35:59;;;;;;;6.13;4.07;;;;;;;19.40;100.00;93266.22;5089328;28;20048;-79
2022/08/12 01:38:26;;;;;;;8.43;4.40;;;;;;;19.36;100.00;93263.34;5089560;28;20048;-79
2022/08/12 01:40:59;;;;;;;5.75;3.90;;;;;;;19.29;100.00;93263.63;5089801;28;20139;-79
2022/08/12 01:43:26;;;;;;;5.53;4.40;;;;;;;19.23;100.00;93262.84;5093515;28;20126;-80
2022/08/12 01:46:06;;;;;;;5.35;3.80;;;;;;;19.12;100.00;93257.91;5099352;28;20044;-79
2022/08/12 01:48:49;;;;;;;5.85;4.50;;;;;;;19.01;100.00;93264.91;5089202;28;20094;-79
2022/08/12 01:51:27;;;;;;;6.10;4.22;;;;;;;18.96;100.00;93257.88;5089679;28;20087;-80
2022/08/12 01:54:03;;;;;;;7.57;4.55;;;;;;;18.93;100.00;93264.38;5089625;28;20981;-80
2022/08/12 01:56:42;;;;;;;8.32;4.90;;;;;;;18.87;100.00;93255.03;5103121;28;20758;-80
2022/08/12 02:01:59;;;;;;;11.27;4.60;;;;;;;18.82;100.00;93257.63;5088961;28;20055;-79
2022/08/12 02:13:45;;;;;;;8.98;5.15;;;;;;;18.46;100.00;93249.78;5091094;28;20063;-76
2022/08/12 02:16:29;;;;;;;7.03;5.05;;;;;;;18.48;100.00;93251.09;5092900;28;20048;-77
2022/08/12 02:19:09;;;;;;;9.77;5.85;;;;;;;18.51;100.00;93258.38;5091688;28;20575;-76
2022/08/12 02:21:42;;;;;;;7.75;5.10;;;;;;;18.49;100.00;93247.44;5091020;28;20147;-77
2022/08/12 02:24:12;;;;;;;10.70;5.72;;;;;;;18.41;100.00;93235.72;5092350;28;20097;-75
2022/08/12 02:26:42;;;;;;;10.75;5.82;;;;;;;18.44;100.00;93231.84;5092113;28;20492;-76
2022/08/12 02:29:12;;;;;;;8.80;5.75;;;;;;;18.42;100.00;93239.09;5092190;28;20044;-76
2022/08/12 02:31:39;;;;;;;8.30;5.22;;;;;;;18.43;100.00;93244.03;5092188;28;20040;-76
2022/08/12 02:34:11;;;;;;;9.95;5.45;;;;;;;18.40;100.00;93241.97;5092123;28;20105;-76
2022/08/12 02:36:39;;;;;;;11.40;6.38;;;;;;;18.46;100.00;93247.19;5092147;28;20051;-75
2022/08/12 02:39:08;;;;;;;8.75;5.90;;;;;;;18.43;100.00;93240.69;5102317;28;20460;-75
2022/08/12 02:41:39;;;;;;;7.68;5.63;;;;;;;18.49;100.00;93254.47;5103335;28;20097;-76
2022/08/12 02:44:09;;;;;;;7.88;5.90;;;;;;;18.53;100.00;93255.50;5099932;28;20039;-76
2022/08/12 02:46:40;;;;;;;10.73;5.35;;;;;;;18.58;100.00;93241.72;5095298;28;20048;-76
2022/08/12 02:49:13;;;;;;;10.20;5.88;;;;;;;18.59;100.00;93248.47;5093250;28;20579;-75
2022/08/12 02:51:43;;;;;;;9.02;5.63;;;;;;;18.59;100.00;93251.09;5103461;28;20036;-75
2022/08/12 02:54:11;;;;;;;9.00;5.88;;;;;;;18.55;100.00;93241.22;5106195;28;20134;-75
2022/08/12 02:56:41;;;;;;;10.15;6.15;;;;;;;18.51;100.00;93234.97;5091787;28;20150;-75
2022/08/12 02:59:09;;;;;;;7.88;5.97;;;;;;;18.50;100.00;93241.22;5091704;28;20040;-75
2022/08/12 03:01:40;;;;;;;7.43;5.30;;;;;;;18.49;100.00;93233.66;5091535;28;20519;-75
2022/08/12 03:04:12;;;;;;;6.90;5.68;;;;;;;18.51;100.00;93239.41;5091589;28;20044;-75
2022/08/12 03:06:43;;;;;;;9.32;5.15;;;;;;;18.52;100.00;93230.56;5091501;28;20048;-75
2022/08/12 03:09:14;;;;;;;12.02;5.22;;;;;;;18.51;100.00;93231.59;5091453;28;20538;-75
2022/08/12 03:11:46;;;;;;;9.30;5.60;;;;;;;18.52;100.00;93230.56;5091108;28;20063;-76
2022/08/12 03:14:15;;;;;;;8.63;5.32;;;;;;;18.51;100.00;93231.59;5091601;28;20098;-75
2022/08/12 03:16:49;;;;;;;8.23;5.70;;;;;;;18.49;100.00;93228.44;5090929;28;20048;-76
2022/08/12 03:19:19;;;;;;;10.18;5.85;;;;;;;18.48;100.00;93235.50;5091807;28;20055;-76
2022/08/12 03:21:49;;;;;;;8.93;5.25;;;;;;;18.45;100.00;93227.41;5091235;28;20492;-75
2022/08/12 03:24:18;;;;;;;7.55;5.35;;;;;;;18.51;100.00;93232.34;5091620;28;20086;-76
2022/08/12 03:26:48;;;;;;;8.18;6.22;;;;;;;18.47;100.00;93231.31;5094739;28;20402;-75
2022/08/12 03:29:16;;;;;;;7.78;5.30;;;;;;;18.29;100.00;93204.00;5101873;28;20070;-75
2022/08/12 03:31:47;;;;;;;8.57;6.13;;;;;;;18.46;100.00;93224.53;5091378;28;20048;-75
2022/08/12 03:34:22;;;;;;;10.27;5.88;;;;;;;18.48;100.00;93221.69;5100021;28;20048;-75
2022/08/12 03:36:53;;;;;;;7.10;5.53;;;;;;;18.42;100.00;93226.88;5095265;28;20059;-76
2022/08/12 03:39:27;;;;;;;8.30;5.78;;;;;;;18.42;100.00;93218.28;5091263;28;20698;-75
2022/08/12 03:41:58;;;;;;;8.45;5.72;;;;;;;18.41;100.00;93222.72;5090931;28;20089;-74
2022/08/12 04:01:06;;;;;;;7.68;5.25;;;;;;;18.26;100.00;93222.69;5090021;28;20081;-76
2022/08/12 04:03:52;;;;;;;7.55;5.22;;;;;;;18.23;100.00;93224.00;5090031;28;20496;-76
2022/08/12 04:06:20;;;;;;;6.75;5.55;;;;;;;18.17;100.00;93219.81;5089621;28;20044;-76
2022/08/12 04:08:49;;;;;;;9.50;6.00;;;;;;;18.13;100.00;93219.56;5090294;28;20090;-76
2022/08/12 04:14:06;;;;;;;8.70;6.20;;;;;;;17.55;100.00;93212.53;5100903;28;20053;-75
2022/08/12 04:16:34;;;;;;;7.72;5.93;;;;;;;17.32;100.00;93178.16;5107649;28;20101;-76
2022/08/12 04:19:03;;;;;;;15.43;12.43;;;;;;;17.54;100.00;93211.00;5093808;28;20040;-75
2022/08/12 04:21:31;;;;;;;15.20;10.70;;;;;;;17.58;100.00;93211.25;5094279;28;20048;-76
2022/08/12 04:23:59;;;;;;;13.35;10.48;;;;;;;17.62;100.00;93220.13;5089731;28;20059;-76
2022/08/12 04:26:26;;;;;;;11.77;8.48;;;;;;;17.65;100.00;93217.03;5090051;28;20048;-76
2022/08/12 04:28:55;;;;;;;9.52;7.75;;;;;;;17.79;100.00;93219.16;5093312;28;21440;-75
2022/08/12 04:31:30;;;;;;;10.43;7.80;;;;;;;17.89;100.00;93216.59;5104376;28;20048;-75
2022/08/12 04:33:57;;;;;;;10.70;7.80;;;;;;;18.02;100.00;93228.34;5090056;28;20044;-77
2022/08/12 04:36:25;;;;;;;9.82;7.10;;;;;;;18.06;100.00;93224.22;5089125;28;20151;-77
2022/08/12 04:38:53;;;;;;;8.25;6.95;;;;;;;18.12;100.00;93220.59;5090248;28;20108;-77
2022/08/12 04:41:20;;;;;;;9.32;6.78;;;;;;;18.07;100.00;93214.59;5089582;28;20056;-76
2022/08/12 04:43:47;;;;;;;11.10;7.10;;;;;;;18.10;100.00;93207.06;5096818;28;20441;-76
2022/08/12 04:46:14;;;;;;;8.95;6.68;;;;;;;18.16;100.00;93215.66;5102474;28;20051;-76
2022/08/12 04:48:41;;;;;;;9.10;6.30;;;;;;;18.22;100.00;93214.63;5098104;28;20086;-76
2022/08/12 04:51:09;;;;;;;9.80;6.97;;;;;;;18.19;100.00;93202.13;5096802;28;20048;-76
2022/08/12 04:53:38;;;;;;;10.52;7.35;;;;;;;18.30;100.00;93208.91;5098758;28;20047;-77
2022/08/12 04:56:05;;;;;;;9.38;7.00;;;;;;;18.31;100.00;93194.09;5100217;28;20047;-76
2022/08/12 04:58:33;;;;;;;12.45;7.07;;;;;;;18.37;100.00;93205.31;5098947;28;20036;-75
2022/08/12 05:00:59;;;;;;;7.35;5.90;;;;;;;18.34;100.00;93198.00;5100164;28;20105;-75
2022/08/12 05:03:27;;;;;;;10.18;6.85;;;;;;;18.41;100.00;93212.31;5098364;28;20093;-77
2022/08/12 05:05:55;;;;;;;10.63;7.28;;;;;;;18.45;100.00;93209.19;5094685;28;20100;-76
2022/08/12 05:08:24;;;;;;;11.10;6.47;;;;;;;18.45;100.00;93207.38;5099297;28;20133;-75
2022/08/12 05:10:52;;;;;;;9.35;6.28;;;;;;;18.52;100.00;93215.72;5098605;28;20082;-74
2022/08/12 05:13:21;;;;;;;14.75;6.45;;;;;;;18.59;100.00;93215.47;5099282;28;20044;-75
2022/08/12 05:15:48;;;;;;;9.10;6.30;;;;;;;18.62;100.00;93221.97;5097184;28;20097;-75
2022/08/12 05:18:15;;;;;;;8.90;6.13;;;;;;;18.65;100.00;93218.84;5098488;28;20102;-76
2022/08/12 05:20:43;;;;;;;7.80;6.15;;;;;;;18.66;100.00;93220.41;5099207;28;20051;-76
2022/08/12 05:23:11;;;;;;;8.85;6.28;;;;;;;18.71;100.00;93217.81;5098077;28;20565;-76
2022/08/12 05:25:39;;;;;;;10.32;6.82;;;;;;;18.74;100.00;93219.13;5097625;28;20086;-75
2022/08/12 05:28:07;;;;;;;9.73;6.13;;;;;;;18.80;100.00;93224.03;5097486;28;20071;-76
2022/08/12 05:30:35;;;;;;;9.20;5.93;;;;;;;18.88;100.00;93227.94;5093830;28;20044;-76
2022/08/12 05:33:04;;;;;;;11.10;5.72;;;;;;;18.91;100.00;93230.03;5095711;28;20044;-76
2022/08/12 05:35:31;;;;;;;7.47;5.72;;;;;;;18.96;100.00;93231.84;5097169;28;20145;-76
2022/08/12 05:40:38;;;;;;;9.10;6.28;;;;;;;19.09;100.00;93244.38;5097661;28;20039;-75
2022/08/12 05:43:05;;;;;;;11.20;7.07;;;;;;;19.16;100.00;93235.53;5096909;28;20048;-75
2022/08/12 05:45:33;;;;;;;10.43;6.90;;;;;;;19.18;100.00;93230.81;5096899;28;20535;-77
2022/08/12 05:48:01;;;;;;;13.38;7.53;;;;;;;19.26;100.00;93240.72;5100851;28;20059;-76
2022/08/12 05:50:28;;;;;;;11.50;8.52;;;;;;;19.33;100.00;93238.63;5101718;28;20127;-76
2022/08/12 05:52:54;;;;;;;11.38;8.13;;;;;;;19.37;100.00;93251.88;5100774;28;20545;-76
2022/08/12 05:55:22;;;;;;;12.45;8.95;;;;;;;19.45;100.00;93255.78;5102391;28;20423;-76
2022/08/12 05:58:00;;;;;;;12.05;9.80;;;;;;;19.35;100.00;93230.56;5102640;28;20043;-76
2022/08/12 06:00:30;;;;;;;18.77;12.68;;;;;;;19.37;100.00;93246.69;5101182;28;20493;-76
2022/08/12 06:03:02;;;;;;;16.25;12.05;;;;;;;19.15;100.00;93252.16;5096752;28;20567;-76
2022/08/12 06:05:33;;;;;;;23.38;13.55;;;;;;;19.16;100.00;93241.50;5100808;28;20101;-76
2022/08/12 06:08:04;;;;;;;16.08;12.02;;;;;;;18.76;100.00;93241.25;5100691;28;20083;-77
2022/08/12 06:10:32;;;;;;;15.63;12.05;;;;;;;18.66;100.00;93247.19;5102360;28;20078;-75
2022/08/12 06:12:58;;;;;;;19.02;13.15;;;;;;;18.79;100.00;93247.75;5095604;28;20048;-77
2022/08/12 06:15:26;;;;;;;17.42;13.00;;;;;;;18.81;100.00;93248.25;5099608;28;20060;-76
2022/08/12 06:17:53;;;;;;;19.90;13.13;;;;;;;18.74;100.00;93216.53;5096967;28;20193;-77
2022/08/12 06:20:21;;;;;;;20.92;12.73;;;;;;;19.09;100.00;93241.00;5102331;28;20563;-76
2022/08/12 06:22:49;;;;;;;20.98;12.70;;;;;;;19.23;100.00;93244.63;5100895;28;20043;-76
2022/08/12 06:25:17;;;;;;;18.63;12.55;;;;;;;19.35;100.00;93230.56;5101609;28;20071;-76
2022/08/12 06:27:47;;;;;;;18.55;12.85;;;;;;;19.54;100.00;93243.00;5101566;28;20102;-76
2022/08/12 06:30:15;;;;;;;20.13;12.77;;;;;;;19.68;100.00;93251.81;5101152;28;20044;-76
2022/08/12 06:32:43;;;;;;;18.67;12.38;;;;;;;19.67;100.00;93236.47;5101709;28;20130;-76
2022/08/12 06:35:10;;;;;;;19.35;12.85;;;;;;;19.92;100.00;93256.44;5101431;28;20134;-76
2022/08/12 06:37:44;;;;;;;19.23;12.27;;;;;;;20.05;100.00;93252.50;5101498;28;20098;-76
2022/08/12 06:40:12;;;;;;;24.27;13.45;;;;;;;19.54;100.00;93241.19;5096276;28;20047;-78
2022/08/12 06:42:47;;;;;;;24.02;13.27;;;;;;;19.48;100.00;93245.63;5099228;28;20553;-77
2022/08/12 06:45:14;;;;;;;30.45;14.10;;;;;;;19.65;100.00;93247.13;5098740;28;20058;-77
2022/08/12 06:47:41;;;;;;;25.15;13.73;;;;;;;19.83;100.00;93240.56;5100131;28;20118;-77
2022/08/12 06:50:10;;;;;;;22.60;13.30;;;;;;;19.21;100.00;93233.69;5101815;28;20176;-77
2022/08/12 06:52:36;;;;;;;25.65;12.30;;;;;;;19.38;100.00;93240.44;5100860;28;20036;-76
2022/08/12 06:55:06;;;;;;;16.90;11.30;;;;;;;19.26;100.00;93242.53;5102072;28;20121;-75
2022/08/12 06:57:33;;;;;;;23.20;11.55;;;;;;;19.41;100.00;93233.91;5097759;28;20518;-75
2022/08/12 06:59:59;;;;;;;23.33;12.82;;;;;;;19.38;100.00;93227.41;5100328;28;20048;-75
2022/08/12 07:02:26;;;;;;;18.63;12.43;;;;;;;19.70;100.00;93222.88;5101689;28;20070;-75
2022/08/12 07:04:53;;;;;;;16.70;11.90;;;;;;;20.02;100.00;93232.16;5100296;28;20044;-75
2022/08/12 07:07:20;;;;;;;19.30;11.00;;;;;;;19.88;100.00;93232.72;5102856;28;20047;-76
2022/08/12 07:09:49;;;;;;;16.50;11.40;;;;;;;19.84;100.00;93246.53;5100003;28;20040;-76
2022/08/12 07:12:18;;;;;;;18.73;12.80;;;;;;;20.03;100.00;93250.16;5100233;28;20100;-75
2022/08/12 07:14:45;;;;;;;16.88;11.80;;;;;;;20.33;100.00;93246.88;5100364;28;20055;-75
2022/08/12 07:17:14;;;;;;;16.85;11.50;;;;;;;20.72;100.00;93253.94;5099732;28;20043;-76
2022/08/12 07:19:42;;;;;;;15.55;10.98;;;;;;;21.15;100.00;93245.53;5099780;28;20039;-75
2022/08/12 07:22:12;;;;;;;16.98;10.98;;;;;;;21.62;100.00;93247.72;5099124;28;20392;-75
2022/08/12 07:24:39;;;;;;;14.85;10.48;;;;;;;22.28;100.00;93252.47;5099863;28;20119;-75
2022/08/12 07:27:06;;;;;;;19.98;11.60;;;;;;;22.90;100.00;93258.69;5099664;28;20040;-75
2022/08/12 07:29:34;;;;;;;15.77;11.15;;;;;;;22.83;100.00;93245.97;5101237;28;20093;-76
2022/08/12 07:32:02;;;;;;;14.15;10.02;;;;;;;23.05;100.00;93249.84;5100868;28;20487;-75
2022/08/12 07:34:28;;;;;;;18.27;10.48;;;;;;;22.88;100.00;93255.59;5101010;28;20058;-75
2022/08/12 07:36:55;;;;;;;15.02;10.35;;;;;;;23.03;100.00;93247.50;5098447;28;20105;-75
2022/08/12 07:39:22;;;;;;;15.50;10.55;;;;;;;23.49;100.00;93253.84;5099520;28;20044;-75
2022/08/12 07:41:49;;;;;;;19.20;9.52;;;;;;;23.65;96.95;93261.41;5099933;28;20036;-76
2022/08/12 07:44:17;;;;;;;11.63;9.07;;;;;;;23.65;98.24;93252.78;5101251;28;20389;-78
2022/08/12 07:46:45;;;;;;;12.68;9.35;;;;;;;23.31;97.50;93257.25;5100880;28;20091;-76
2022/08/12 07:49:14;;;;;;;18.15;9.48;;;;;;;22.72;100.00;93253.19;5093763;28;20035;-76
2022/08/12 07:51:43;;;;;;;17.65;10.98;;;;;;;22.35;100.00;93249.50;5099481;28;20125;-76
2022/08/12 07:54:11;;;;;;;16.05;9.02;;;;;;;22.27;100.00;93251.69;5099745;28;20039;-77
2022/08/12 07:56:40;;;;;;;17.02;8.88;;;;;;;22.47;100.00;93251.69;5099817;28;20139;-76
2022/08/12 07:59:07;;;;;;;11.98;8.93;;;;;;;21.88;100.00;93240.41;5098587;28;20044;-76
2022/08/12 08:01:36;;;;;;;14.30;9.13;;;;;;;22.16;100.00;93245.81;5099203;28;20080;-76
2022/08/12 08:06:50;;;;;;;13.70;9.32;;;;;;;23.14;100.00;93235.00;5100938;28;20403;-75
2022/08/12 08:09:21;;;;;;;16.15;9.90;;;;;;;23.64;100.00;93235.50;5096721;28;20094;-75
2022/08/12 08:14:32;;;;;;;11.95;7.90;;;;;;;23.78;99.18;93241.50;5098039;28;20078;-75
2022/08/12 08:17:02;;;;;;;15.35;9.02;;;;;;;23.48;99.26;93241.78;5098898;28;20044;-75
2022/08/12 08:19:32;;;;;;;13.27;8.90;;;;;;;23.13;96.91;93236.06;5099439;28;20044;-75
2022/08/12 08:21:59;;;;;;;16.58;10.13;;;;;;;23.54;98.16;93239.06;5099812;28;20067;-75
2022/08/12 08:24:27;;;;;;;14.35;7.78;;;;;;;24.06;95.44;93232.84;5098081;28;20408;-75
2022/08/12 08:26:57;;;;;;;13.43;7.43;;;;;;;24.36;94.83;93223.59;5097950;28;20047;-75
2022/08/12 08:29:24;;;;;;;10.45;7.25;;;;;;;24.50;91.27;93241.13;5099150;28;20048;-75
2022/08/12 08:31:53;;;;;;;11.18;5.53;;;;;;;24.76;87.42;93245.81;5097753;28;20454;-75
2022/08/12 08:34:21;;;;;;;10.30;6.20;;;;;;;25.17;88.35;93241.44;5099081;28;20055;-75
2022/08/12 08:36:49;;;;;;;6.95;5.18;;;;;;;24.67;81.69;93251.78;5100754;28;20507;-75
2022/08/12 08:39:16;;;;;;;9.45;5.82;;;;;;;24.35;84.01;93242.25;5098020;28;20457;-75
2022/08/12 08:44:27;;;;;;;8.00;5.75;;;;;;;24.62;81.27;93227.50;5099072;28;20053;-75
2022/08/12 08:46:54;;;;;;;7.68;4.63;;;;;;;24.88;81.31;93238.19;5098751;28;20043;-75
2022/08/12 08:49:22;;;;;;;8.35;5.55;;;;;;;24.36;86.00;93233.28;5098492;28;20130;-75
2022/08/12 08:51:50;;;;;;;7.05;4.55;;;;;;;24.87;85.41;93234.03;5089888;28;20044;-75
2022/08/12 08:54:16;;;;;;;7.55;5.20;;;;;;;25.07;82.41;93229.34;5089642;28;20642;-75
2022/08/12 08:56:45;;;;;;;6.15;4.97;;;;;;;25.43;82.51;93233.72;5089164;28;20044;-75
2022/08/12 08:59:12;;;;;;;7.70;4.97;;;;;;;25.96;85.45;93217.38;5089154;28;20500;-75
2022/08/12 09:01:39;;;;;;;7.00;5.18;;;;;;;25.98;80.79;93215.97;5088708;28;20117;-75
2022/08/12 09:04:07;;;;;;;6.55;5.03;;;;;;;26.33;80.57;93203.97;5098407;28;20077;-75
2022/08/12 09:06:34;;;;;;;7.30;5.35;;;;;;;26.81;78.76;93218.81;5094359;28;20058;-76
2022/08/12 09:09:04;;;;;;;7.18;5.05;;;;;;;27.21;74.84;93224.97;5091277;28;20055;-73
2022/08/12 09:14:15;;;;;;;7.38;6.00;;;;;;;26.22;78.14;93225.31;5107153;28;20171;-76
2022/08/12 09:16:42;;;;;;;6.53;5.38;;;;;;;25.84;77.93;93220.56;5109211;28;20047;-76
2022/08/12 09:19:12;;;;;;;6.78;5.45;;;;;;;25.53;78.69;93227.41;5109108;28;20043;-75
2022/08/12 09:21:39;;;;;;;5.72;4.57;;;;;;;24.70;78.79;93218.88;5093265;28;20048;-76
2022/08/12 09:24:07;;;;;;;7.50;4.47;;;;;;;25.01;79.18;93212.94;5088809;28;20438;-74
2022/08/12 09:26:35;;;;;;;7.55;4.38;;;;;;;25.32;79.15;93217.41;5088297;28;20081;-75
2022/08/12 09:29:03;;;;;;;6.10;4.55;;;;;;;24.64;77.21;93207.72;5088840;28;20048;-75
2022/08/12 09:31:30;;;;;;;5.68;4.10;;;;;;;25.02;80.48;93218.94;5089170;28;20044;-75
2022/08/12 09:33:57;;;;;;;6.70;4.78;;;;;;;25.54;79.92;93207.94;5088977;28;20389;-74
2022/08/12 09:36:24;;;;;;;6.72;4.63;;;;;;;25.79;76.33;93210.19;5091564;28;20104;-75
2022/08/12 09:38:50;;;;;;;5.03;3.95;;;;;;;26.10;78.49;93210.09;5104046;28;20039;-75
2022/08/12 09:41:21;;;;;;;4.72;3.92;;;;;;;26.17;73.48;93212.28;5090576;28;20044;-75
2022/08/12 09:46:41;;;;;;;5.32;4.13;;;;;;;26.02;75.04;93216.91;5027815;28;20123;-75
2022/08/12 09:49:09;;;;;;;6.00;4.18;;;;;;;26.20;76.82;93208.25;5092779;28;20040;-75
2022/08/12 09:51:37;;;;;;;7.00;4.05;;;;;;;26.09;75.43;93205.94;5094108;28;20416;-75
2022/08/12 09:54:04;;;;;;;8.90;5.05;;;;;;;25.70;76.27;93113.63;5092991;28;20078;-76
2022/08/12 09:56:33;;;;;;;5.78;4.20;;;;;;;26.34;74.71;93208.91;5088356;28;20127;-76
2022/08/12 09:59:00;;;;;;;6.13;4.65;;;;;;;26.07;75.30;93207.31;5095582;28;20088;-76
2022/08/12 10:01:27;;;;;;;5.60;4.65;;;;;;;26.10;76.76;93198.81;5098254;28;20046;-76
2022/08/12 10:04:00;;;;;;;5.78;4.53;;;;;;;26.37;76.52;93199.63;5093545;28;20048;-76
2022/08/12 10:06:28;;;;;;;6.43;4.72;;;;;;;26.50;75.28;93200.56;5096684;28;20085;-77
2022/08/12 10:08:55;;;;;;;9.27;5.15;;;;;;;26.54;75.63;93202.28;5096817;28;20651;-77
2022/08/12 10:14:11;;;;;;;6.22;4.78;;;;;;;25.82;73.50;93201.69;5093817;28;20063;-77
2022/08/12 10:16:42;;;;;;;8.30;4.72;;;;;;;25.87;75.26;93197.06;5089578;28;20055;-77
2022/08/12 10:19:09;;;;;;;6.63;5.00;;;;;;;25.96;74.42;93191.81;5089485;28;20048;-76
2022/08/12 10:21:38;;;;;;;6.47;4.70;;;;;;;25.67;73.44;93200.25;5097874;28;20048;-76
2022/08/12 10:24:07;;;;;;;5.35;4.25;;;;;;;25.81;77.29;93158.81;5088854;28;20075;-76
2022/08/12 10:32:07;;;;;;;5.18;4.50;;;;;;;26.80;66.37;93169.09;5088656;28;19927;-76
2022/08/12 10:34:35;;;;;;;6.53;4.45;;;;;;;27.03;70.35;93172.28;5090744;28;20047;-76
2022/08/12 10:37:04;;;;;;;8.35;5.03;;;;;;;27.57;71.99;93168.38;5092013;28;20048;-77
2022/08/12 10:39:35;;;;;;;5.63;4.53;;;;;;;28.05;69.11;93168.28;5092435;28;20093;-76
2022/08/12 10:44:50;;;;;;;4.88;4.13;;;;;;;27.71;62.72;93173.47;5106482;28;20109;-78
2022/08/12 10:47:19;;;;;;;4.70;3.72;;;;;;;27.14;62.16;93146.38;5097861;28;20052;-79
2022/08/12 10:49:46;;;;;;;6.10;4.95;;;;;;;26.63;63.38;93143.53;5093714;28;20044;-80
2022/08/12 10:52:13;;;;;;;6.47;4.57;;;;;;;27.02;64.64;93141.75;5091860;28;20093;-79
2022/08/12 10:54:42;;;;;;;6.43;4.75;;;;;;;27.52;62.83;93157.22;5091973;28;20427;-79
2022/08/12 10:57:10;;;;;;;6.00;4.43;;;;;;;27.23;60.06;93153.47;5093905;28;20052;-79
2022/08/12 10:59:36;;;;;;;6.68;4.88;;;;;;;27.54;60.71;93153.16;5103689;28;20070;-80
2022/08/12 11:02:06;;;;;;;7.03;4.68;;;;;;;27.53;62.69;93138.44;5096114;28;20044;-79
2022/08/12 11:04:34;;;;;;;4.88;3.92;;;;;;;27.68;61.48;93137.13;5091740;28;20066;-79
2022/08/12 11:07:02;;;;;;;4.82;4.20;;;;;;;27.60;62.87;93141.38;5103178;28;20078;-79
2022/08/12 11:09:31;;;;;;;5.07;4.47;;;;;;;27.03;63.00;93138.03;5091735;28;20508;-80
2022/08/12 11:12:01;;;;;;;7.18;4.20;;;;;;;27.47;63.74;93139.72;5091544;28;20044;-80
2022/08/12 11:14:32;;;;;;;7.13;4.00;;;;;;;27.86;62.73;93127.25;5091120;28;20052;-80
2022/08/12 11:17:00;;;;;;;5.68;4.20;;;;;;;28.07;61.63;93136.28;5090969;28;20512;-80
2022/08/12 11:19:29;;;;;;;5.55;4.47;;;;;;;27.90;59.82;93129.25;5091722;28;20044;-80
2022/08/12 11:21:57;;;;;;;5.55;4.90;;;;;;;27.38;62.86;93125.78;5105343;28;20450;-79
2022/08/12 11:24:25;;;;;;;5.57;4.93;;;;;;;27.23;65.25;93119.19;5097602;28;20098;-79
2022/08/12 11:26:52;;;;;;;4.90;4.28;;;;;;;27.39;61.30;93122.09;5096029;28;20039;-78
2022/08/12 11:29:20;;;;;;;6.75;4.78;;;;;;;27.77;64.45;93107.31;5086247;28;20462;-78
2022/08/12 11:31:48;;;;;;;5.05;4.22;;;;;;;28.08;58.85;93124.59;5091700;28;20089;-79
2022/08/12 11:34:16;;;;;;;6.38;5.13;;;;;;;28.14;58.64;93121.47;5090283;28;20043;-79
2022/08/12 11:36:52;;;;;;;5.18;4.53;;;;;;;27.85;58.20;93123.06;5091431;28;20110;-78
2022/08/12 11:39:19;;;;;;;5.15;4.63;;;;;;;27.43;59.49;93115.06;5091073;28;20101;-78
2022/08/12 11:41:46;;;;;;;4.43;4.03;;;;;;;27.11;59.14;93119.88;5091103;28;20048;-77
2022/08/12 11:44:13;;;;;;;6.05;4.70;;;;;;;27.23;61.56;93103.38;5096207;28;20055;-77
2022/08/12 11:46:41;;;;;;;5.85;4.60;;;;;;;27.25;61.76;93114.38;5091785;28;20036;-77
2022/08/12 11:49:12;;;;;;;7.68;5.00;;;;;;;26.53;59.98;93011.06;5091633;28;20051;-77
2022/08/12 11:51:39;;;;;;;6.20;4.93;;;;;;;26.12;61.67;93107.94;5092599;28;20128;-77
2022/08/12 11:54:07;;;;;;;4.88;4.00;;;;;;;26.42;61.15;93107.28;5091203;28;20048;-76
2022/08/12 11:56:34;;;;;;;6.38;5.30;;;;;;;26.86;64.89;93107.22;5090791;28;20051;-75
2022/08/12 11:59:01;;;;;;;5.13;4.30;;;;;;;26.75;60.73;93109.41;5090665;28;20132;-76
2022/08/12 12:01:28;;;;;;;5.65;4.93;;;;;;;26.63;61.56;93107.44;5093913;28;20048;-75
2022/08/12 12:03:55;;;;;;;6.57;4.70;;;;;;;26.84;61.02;93104.09;5090541;28;20105;-76
2022/08/12 12:06:22;;;;;;;5.72;4.63;;;;;;;26.98;61.10;93098.66;5098024;28;20048;-76
2022/08/12 12:08:49;;;;;;;5.15;4.63;;;;;;;26.88;60.18;93062.84;5094699;28;20056;-78
2022/08/12 12:11:17;;;;;;;4.68;4.18;;;;;;;27.10;60.94;93086.66;5090704;28;20044;-79
2022/08/12 12:13:44;;;;;;;5.40;4.68;;;;;;;27.24;61.96;93089.09;5089883;28;20040;-78
2022/08/12 12:16:11;;;;;;;9.13;4.68;;;;;;;27.43;62.49;93089.47;5096675;28;20102;-78
2022/08/12 12:18:38;;;;;;;4.53;3.65;;;;;;;27.45;57.90;93102.34;5094909;28;20047;-78
2022/08/12 12:21:07;;;;;;;6.20;4.60;;;;;;;27.46;59.47;93088.81;5092101;28;20074;-78
2022/08/12 12:23:34;;;;;;;6.18;4.10;;;;;;;27.48;60.52;93088.50;5098186;28;20040;-78
2022/08/12 12:26:01;;;;;;;4.43;3.80;;;;;;;27.54;61.37;93089.84;5096270;28;20044;-78
2022/08/12 12:28:30;;;;;;;4.10;3.65;;;;;;;27.58;61.19;93090.00;5096512;28;20044;-78
2022/08/12 12:30:56;;;;;;;7.53;4.72;;;;;;;27.55;60.52;93088.78;5093814;28;20044;-80
2022/08/12 12:33:28;;;;;;;4.68;3.97;;;;;;;27.32;60.47;93078.50;5094170;28;20048;-80
2022/08/12 12:35:54;;;;;;;4.57;4.00;;;;;;;26.93;62.40;93075.91;5091416;28;20522;-80
2022/08/12 12:38:22;;;;;;;4.55;3.25;;;;;;;26.69;62.48;93068.50;5096508;28;20073;-80
2022/08/12 12:40:49;;;;;;;3.42;2.35;;;;;;;26.21;61.63;93071.06;5095457;28;20036;-80
2022/08/12 12:43:18;;;;;;;4.35;2.38;;;;;;;25.89;62.60;93063.31;5096885;28;20081;-79
2022/08/12 12:45:49;;;;;;;6.15;3.20;;;;;;;25.42;62.45;93069.16;5091999;28;20039;-79
2022/08/12 12:48:18;;;;;;;7.50;3.55;;;;;;;25.23;62.03;93066.78;5090572;28;20221;-79
2022/08/12 12:50:46;;;;;;;5.90;3.42;;;;;;;25.33;61.38;93068.34;5089925;28;20040;-79
2022/08/12 12:53:17;;;;;;;3.17;2.45;;;;;;;25.41;61.31;93064.94;5090221;28;20481;-78
2022/08/12 12:55:45;;;;;;;4.50;2.50;;;;;;;25.26;58.88;93068.78;5089727;28;20040;-79
2022/08/12 12:58:15;;;;;;;4.63;2.92;;;;;;;25.20;60.57;93062.13;5090122;28;20048;-80
2022/08/12 13:00:43;;;;;;;3.65;3.22;;;;;;;25.34;61.58;93039.13;5096624;28;20097;-79
2022/08/12 13:03:13;;;;;;;4.80;3.08;;;;;;;25.07;60.92;93051.44;5106922;28;20403;-79
2022/08/12 13:05:42;;;;;;;7.28;3.25;;;;;;;24.48;62.75;93051.63;5089676;28;20048;-77
2022/08/12 13:08:23;;;;;;;3.10;2.28;;;;;;;24.53;63.57;93043.63;5088771;28;20054;-78
2022/08/12 13:10:50;;;;;;;9.68;4.13;;;;;;;24.39;64.48;93046.34;5088684;28;20055;-77
2022/08/12 13:13:18;;;;;;;5.22;2.78;;;;;;;24.56;65.33;93032.50;5089489;28;20052;-80
2022/08/12 13:15:45;;;;;;;6.13;3.17;;;;;;;24.13;64.24;93005.75;5089419;28;20040;-77
2022/08/12 13:18:13;;;;;;;5.20;3.08;;;;;;;24.21;65.66;93021.81;5089524;28;20438;-77
2022/08/12 13:20:42;;;;;;;5.97;3.10;;;;;;;23.94;66.96;93018.22;5089097;28;20047;-77
2022/08/12 13:23:09;;;;;;;3.55;2.78;;;;;;;23.73;68.16;93003.75;5089533;28;20412;-77